Time;durP1;ratioP1;P1;durP2;ratioP2;P2;SDS_P1;SDS_P2;PMS_P1;PMS_P2;Temp;Humidity;BMP_temperature;BMP_pressure;BME280_temperature;BME280_humidity;BME280_pressure;Samples;Min_cycle;Max_cycle;Signal;HPM_P1;HPM_P2
2022/01/18 00:02:01;;;;;;;23.57;3.70;;;;;;;-142.75;100.00;79872.78;5012053;28;20026;-68
2022/01/18 00:04:29;;;;;;;19.33;3.80;;;;;;;-142.75;100.00;79888.53;4993569;28;20022;-68
2022/01/18 00:06:55;;;;;;;13.40;2.93;;;;;;;-142.75;100.00;79904.31;5011472;28;20022;-67
2022/01/18 00:09:23;;;;;;;21.77;3.65;;;;;;;-142.75;100.00;79924.00;5011234;28;20736;-68
2022/01/18 00:12:13;;;;;;;15.80;3.40;;;;;;;-142.75;100.00;79945.69;5011394;28;20055;-68
2022/01/18 00:17:18;;;;;;;30.93;4.33;;;;;;;-142.75;100.00;79955.53;4987847;28;19922;-70
2022/01/18 00:19:54;;;;;;;18.00;4.10;;;;;;;-142.75;100.00;79957.50;4989980;28;20023;-71
2022/01/18 00:22:21;;;;;;;25.50;3.28;;;;;;;-142.75;100.00;79957.50;4991891;28;21367;-70
2022/01/18 00:24:46;;;;;;;23.93;3.97;;;;;;;-142.75;100.00;79957.50;4991454;28;20018;-70
2022/01/18 00:27:15;;;;;;;17.90;3.15;;;;;;;-142.75;100.00;79965.38;4991632;28;20034;-70
2022/01/18 00:29:53;;;;;;;19.73;4.17;;;;;;;-142.75;100.00;79973.25;4973893;28;20053;-68
2022/01/18 00:32:36;;;;;;;19.77;3.70;;;;;;;-142.75;100.00;79973.25;4991763;28;20026;-68
2022/01/18 00:35:01;;;;;;;18.83;4.37;;;;;;;-142.75;100.00;79992.97;4973753;28;20446;-68
2022/01/18 00:37:33;;;;;;;28.25;4.68;;;;;;;-142.75;100.00;79985.09;4991490;28;20030;-71
2022/01/18 00:40:00;;;;;;;31.70;5.33;;;;;;;-142.75;100.00;79981.16;4991106;28;20070;-68
2022/01/18 00:42:25;;;;;;;24.85;5.10;;;;;;;-142.75;100.00;79975.22;4991473;28;20026;-68
2022/01/18 00:44:50;;;;;;;31.55;5.53;;;;;;;-142.75;100.00;79975.22;4990955;28;20029;-68
2022/01/18 00:47:16;;;;;;;25.08;5.15;;;;;;;-142.75;100.00;79977.19;4991177;28;20026;-69
2022/01/18 00:49:44;;;;;;;32.45;5.43;;;;;;;-142.75;100.00;79971.28;4990916;28;20049;-68
2022/01/18 00:52:10;;;;;;;34.13;4.97;;;;;;;-142.75;100.00;79959.47;4990562;28;20077;-68
2022/01/18 00:54:40;;;;;;;39.50;5.05;;;;;;;-142.75;100.00;79969.31;4991053;28;20030;-69
2022/01/18 00:57:06;;;;;;;31.83;5.33;;;;;;;-142.75;100.00;79973.25;4991119;28;20015;-69
2022/01/18 00:59:32;;;;;;;40.80;6.33;;;;;;;-142.75;100.00;79973.25;4973733;28;20710;-69
2022/01/18 01:01:57;;;;;;;30.20;5.55;;;;;;;-142.75;100.00;79959.47;4991535;28;20106;-69
2022/01/18 01:04:27;;;;;;;23.08;4.68;;;;;;;-142.75;100.00;79953.56;4990968;28;20033;-69
2022/01/18 01:06:52;;;;;;;39.17;6.37;;;;;;;-142.75;100.00;79951.59;4973290;28;20028;-68
2022/01/18 01:09:18;;;;;;;29.35;5.38;;;;;;;-142.75;100.00;79953.56;4973166;28;20121;-68
2022/01/18 01:11:43;;;;;;;29.52;5.43;;;;;;;-142.75;100.00;79957.50;4990895;28;20018;-69
2022/01/18 01:14:13;;;;;;;35.47;6.05;;;;;;;-142.75;100.00;79963.41;4991003;28;20028;-68
2022/01/18 01:16:51;;;;;;;32.20;6.13;;;;;;;-142.75;100.00;79961.44;4990599;28;20019;-68
2022/01/18 01:19:32;;;;;;;22.43;5.77;;;;;;;-142.75;100.00;79957.50;4990362;28;20053;-69
2022/01/18 01:45:34;;;;;;;32.85;4.95;;;;;;;-142.75;100.00;79989.03;4990421;28;20109;-68
2022/01/18 01:48:00;;;;;;;22.77;5.10;;;;;;;-142.75;100.00;79981.16;4972908;28;20468;-68
2022/01/18 01:50:33;;;;;;;23.50;5.03;;;;;;;-142.75;100.00;79987.06;4990624;28;20029;-68
2022/01/18 01:52:59;;;;;;;24.13;3.83;;;;;;;-142.75;100.00;79985.09;4990627;28;20555;-69
2022/01/18 01:55:24;;;;;;;22.60;4.15;;;;;;;-142.75;100.00;79983.13;4990445;28;20022;-69
2022/01/18 01:57:50;;;;;;;15.95;3.55;;;;;;;-142.75;100.00;79977.19;4972874;28;20075;-68
2022/01/18 02:00:19;;;;;;;14.80;3.63;;;;;;;-142.75;100.00;79992.97;4990788;28;20484;-68
2022/01/18 02:02:46;;;;;;;24.53;4.50;;;;;;;-142.75;100.00;80022.50;4974672;28;20030;-69
2022/01/18 02:05:12;;;;;;;30.20;5.17;;;;;;;-142.75;100.00;80014.63;4994155;28;20030;-69
2022/01/18 02:07:38;;;;;;;20.93;4.50;;;;;;;-142.75;100.00;79998.88;4994031;28;20373;-69
2022/01/18 02:10:07;;;;;;;15.85;3.65;;;;;;;-142.75;100.00;80000.84;4976683;28;20045;-69
2022/01/18 02:12:34;;;;;;;11.47;3.10;;;;;;;-142.75;100.00;80020.53;4976412;28;20113;-69
2022/01/18 02:15:09;;;;;;;54.13;3.63;;;;;;;-142.75;100.00;80075.72;4993824;28;20038;-69
2022/01/18 02:23:23;;;;;;;15.87;2.47;;;;;;;-142.75;100.00;80095.41;4994326;28;20136;-69
2022/01/18 02:25:48;;;;;;;7.20;3.05;;;;;;;-142.75;100.00;80081.63;4976285;28;20504;-69
2022/01/18 02:28:14;;;;;;;7.18;2.40;;;;;;;-142.75;100.00;80071.78;4993314;28;20041;-69
2022/01/18 02:30:40;;;;;;;9.43;2.43;;;;;;;-142.75;100.00;80067.84;4994344;28;20105;-69
2022/01/18 02:33:05;;;;;;;7.97;2.40;;;;;;;-142.75;100.00;80052.06;4993864;28;20109;-69
2022/01/18 02:35:32;;;;;;;8.55;2.25;;;;;;;-142.75;100.00;80048.13;4993449;28;20030;-69
2022/01/18 02:37:58;;;;;;;12.97;3.03;;;;;;;-142.75;100.00;80046.16;4993377;28;20041;-69
2022/01/18 02:40:24;;;;;;;10.95;2.85;;;;;;;-142.75;100.00;80032.38;4993573;28;20022;-69
2022/01/18 02:42:57;;;;;;;;;;;;;;;-142.75;100.00;80028.44;4976293;28;20030;-69
2022/01/18 02:45:22;;;;;;;16.97;4.13;;;;;;;-142.75;100.00;80022.50;4993324;28;20008;-69
2022/01/18 02:47:48;;;;;;;24.92;4.50;;;;;;;-142.75;100.00;80008.72;4993301;28;20472;-68
2022/01/18 02:50:14;;;;;;;15.43;4.22;;;;;;;-142.75;100.00;80010.69;4993020;28;20028;-69
2022/01/18 02:52:39;;;;;;;19.15;4.30;;;;;;;-142.75;100.00;80006.75;4993495;28;20112;-69
2022/01/18 02:55:05;;;;;;;14.93;3.97;;;;;;;-142.75;100.00;80002.81;4993636;28;20424;-69
2022/01/18 02:57:40;;;;;;;10.27;3.33;;;;;;;-142.75;100.00;80010.69;4974467;28;20026;-69
2022/01/18 03:00:17;;;;;;;12.63;3.03;;;;;;;-142.75;100.00;80014.63;4975938;28;20026;-69
2022/01/18 03:05:26;;;;;;;9.77;3.17;;;;;;;-142.75;100.00;80048.13;4993033;28;20513;-69
2022/01/18 03:07:52;;;;;;;6.57;2.17;;;;;;;-142.75;100.00;80061.91;4975286;28;20121;-69
2022/01/18 03:10:17;;;;;;;6.47;2.13;;;;;;;-142.75;100.00;80087.53;4992970;28;20278;-69
2022/01/18 03:12:43;;;;;;;7.38;2.70;;;;;;;-142.75;100.00;80101.31;4992969;28;20069;-69
2022/01/18 03:15:09;;;;;;;17.70;3.28;;;;;;;-142.75;100.00;80103.28;4991747;28;20026;-69
2022/01/18 03:17:35;;;;;;;7.78;3.33;;;;;;;-142.75;100.00;80111.19;4992770;28;20058;-69
2022/01/18 03:20:02;;;;;;;12.30;3.20;;;;;;;-142.75;100.00;80107.22;4992692;28;20109;-69
2022/01/18 03:22:28;;;;;;;10.60;3.40;;;;;;;-142.75;100.00;80099.34;4992528;28;20041;-69
2022/01/18 03:25:03;;;;;;;11.05;3.20;;;;;;;-142.75;100.00;80099.34;4992758;28;20030;-69
2022/01/18 03:30:13;;;;;;;15.77;3.43;;;;;;;-142.75;100.00;80101.31;4992736;28;20037;-70
2022/01/18 03:32:39;;;;;;;7.38;2.75;;;;;;;-142.75;100.00;80099.34;4992978;28;20026;-70
2022/01/18 03:35:06;;;;;;;9.50;2.85;;;;;;;-142.75;100.00;80099.34;4992440;28;20097;-69
2022/01/18 03:37:32;;;;;;;12.27;3.63;;;;;;;-142.75;100.00;80099.34;4974885;28;20030;-69
2022/01/18 03:39:57;;;;;;;13.38;3.13;;;;;;;-142.75;100.00;80099.34;4992296;28;20056;-69
2022/01/18 03:45:06;;;;;;;22.60;4.20;;;;;;;-142.75;100.00;80113.16;4992430;28;20046;-69
2022/01/18 03:47:33;;;;;;;33.40;3.57;;;;;;;-142.75;100.00;80107.22;4992379;28;20041;-69
2022/01/18 03:49:59;;;;;;;38.63;3.37;;;;;;;-142.75;100.00;80126.94;4991923;28;20034;-69
2022/01/18 03:52:24;;;;;;;14.30;4.15;;;;;;;-142.75;100.00;80136.78;4992171;28;20045;-69
2022/01/18 03:54:50;;;;;;;15.93;2.95;;;;;;;-142.75;100.00;80146.63;4992131;28;20046;-69
2022/01/18 03:57:16;;;;;;;23.35;3.00;;;;;;;-142.75;100.00;80150.59;4992278;28;20022;-69
2022/01/18 03:59:45;;;;;;;42.77;3.10;;;;;;;-142.75;100.00;80174.22;4974274;28;20076;-70
2022/01/18 04:02:11;;;;;;;13.97;2.87;;;;;;;-142.75;100.00;80188.00;4992548;28;20506;-69
2022/01/18 04:04:39;;;;;;;14.82;3.10;;;;;;;-142.75;100.00;80176.19;4992130;28;20030;-69
2022/01/18 04:07:05;;;;;;;23.73;2.87;;;;;;;-142.75;100.00;80174.22;4991855;28;20133;-69
2022/01/18 04:09:31;;;;;;;42.42;4.22;;;;;;;-142.75;100.00;80178.16;4991600;28;20030;-69
2022/01/18 04:11:56;;;;;;;15.63;3.90;;;;;;;-142.75;100.00;80180.13;4991957;28;20053;-69
2022/01/18 04:14:23;;;;;;;9.88;3.47;;;;;;;-142.75;100.00;80184.06;4992014;28;20068;-69
2022/01/18 04:27:30;;;;;;;64.47;4.67;;;;;;;-142.75;100.00;80168.31;4992295;28;20036;-69
2022/01/18 04:29:55;;;;;;;25.07;5.23;;;;;;;-142.75;100.00;80174.22;4974164;28;20038;-69
2022/01/18 04:32:20;;;;;;;39.93;4.57;;;;;;;-142.75;100.00;80168.31;4992237;28;20037;-69
2022/01/18 04:34:47;;;;;;;29.83;4.20;;;;;;;-142.75;100.00;80168.31;4991559;28;20285;-69
2022/01/18 04:37:12;;;;;;;14.77;4.53;;;;;;;-142.75;100.00;80174.22;4973882;28;20022;-69
2022/01/18 04:39:40;;;;;;;12.45;4.50;;;;;;;-142.75;100.00;80166.34;4991250;28;20030;-69
2022/01/18 04:42:13;;;;;;;40.90;5.13;;;;;;;-142.75;100.00;80166.34;4991470;28;20049;-69
2022/01/18 04:50:26;;;;;;;33.10;4.57;;;;;;;-142.75;100.00;80193.94;4912143;29;20096;-69
2022/01/18 04:52:51;;;;;;;21.73;3.80;;;;;;;-142.75;100.00;80221.50;4912423;29;20048;-69
2022/01/18 04:55:18;;;;;;;16.40;3.20;;;;;;;-142.75;100.00;80235.31;4947665;28;20278;-69
2022/01/18 04:57:53;;;;;;;6.53;2.47;;;;;;;-142.75;100.00;80249.09;4991059;28;20775;-69
2022/01/18 05:00:20;;;;;;;11.10;2.73;;;;;;;-142.75;100.00;80276.69;4991202;28;20038;-69
2022/01/18 05:02:47;;;;;;;21.67;3.40;;;;;;;-142.75;100.00;80288.50;4991420;28;20079;-69
2022/01/18 05:05:22;;;;;;;33.63;3.00;;;;;;;-142.75;100.00;80292.44;4990869;28;20022;-69
2022/01/18 05:07:48;;;;;;;13.07;2.77;;;;;;;-142.75;100.00;80284.56;4990938;28;20500;-68
2022/01/18 05:10:16;;;;;;;14.50;2.80;;;;;;;-142.75;100.00;80290.47;4973566;28;20138;-69
2022/01/18 05:12:46;;;;;;;10.30;2.83;;;;;;;-142.75;100.00;80306.22;4991034;28;20092;-69
2022/01/18 05:23:33;;;;;;;8.17;3.60;;;;;;;-142.75;100.00;80274.72;4957576;28;20045;-68
2022/01/18 05:25:58;;;;;;;5.82;3.30;;;;;;;-142.75;100.00;80266.81;4990557;28;20027;-69
2022/01/18 05:28:23;;;;;;;11.18;2.80;;;;;;;-142.75;100.00;80278.66;4989433;28;20030;-68
2022/01/18 05:30:48;;;;;;;8.47;3.50;;;;;;;-142.75;100.00;80318.06;4989885;28;20508;-69
2022/01/18 05:33:14;;;;;;;11.57;3.65;;;;;;;-142.75;100.00;80355.50;4991043;28;20269;-69
2022/01/18 05:35:39;;;;;;;12.15;3.33;;;;;;;-142.75;100.00;80392.94;4989208;28;20024;-69
2022/01/18 05:38:06;;;;;;;18.60;2.97;;;;;;;-142.75;100.00;80426.41;4975477;28;20041;-69
2022/01/18 05:40:32;;;;;;;17.43;3.50;;;;;;;-142.75;100.00;80442.19;4994523;28;20034;-69
2022/01/18 05:42:57;;;;;;;10.27;3.60;;;;;;;-142.75;100.00;80455.97;4994553;28;20026;-69
2022/01/18 05:45:22;;;;;;;19.55;3.90;;;;;;;-142.75;100.00;80457.94;4994685;28;20027;-69
2022/01/18 05:47:48;;;;;;;8.57;3.15;;;;;;;-142.75;100.00;80477.66;4993496;28;20042;-69
2022/01/18 05:50:14;;;;;;;16.92;3.80;;;;;;;-142.75;100.00;80481.59;4994547;28;20030;-69
2022/01/18 05:52:40;;;;;;;23.85;3.40;;;;;;;-142.75;100.00;80489.47;4994415;28;20053;-69
2022/01/18 05:55:07;;;;;;;11.27;3.73;;;;;;;-142.75;100.00;80493.41;4994363;28;20026;-69
2022/01/18 05:57:33;;;;;;;6.40;3.63;;;;;;;-142.75;100.00;80485.53;4994356;28;20125;-69
2022/01/18 06:00:04;;;;;;;31.73;4.15;;;;;;;-142.75;100.00;80485.53;4993873;28;20117;-68
2022/01/18 06:02:41;;;;;;;17.27;3.70;;;;;;;-142.75;100.00;80491.44;4977368;28;20041;-69
2022/01/18 06:07:51;;;;;;;13.43;3.83;;;;;;;-142.75;100.00;80454.00;4994088;28;20138;-68
2022/01/18 06:10:16;;;;;;;13.18;4.82;;;;;;;-142.75;100.00;80442.19;4976284;28;20129;-69
2022/01/18 06:12:42;;;;;;;18.47;4.70;;;;;;;-142.75;100.00;80432.34;4994263;28;20084;-69
2022/01/18 06:17:41;;;;;;;22.67;3.90;;;;;;;-142.75;100.00;80424.44;5005286;23;20054;-69
2022/01/18 06:20:07;;;;;;;25.10;3.90;;;;;;;-142.75;100.00;80426.41;4969268;28;20018;-70
2022/01/18 06:22:33;;;;;;;21.23;3.60;;;;;;;-142.75;100.00;80442.19;4979170;28;20507;-69
2022/01/18 06:24:58;;;;;;;17.92;3.25;;;;;;;-142.75;100.00;80461.88;4984027;28;20070;-70
2022/01/18 06:27:24;;;;;;;17.02;3.22;;;;;;;-142.75;100.00;80469.78;4985785;28;20610;-69
2022/01/18 06:29:49;;;;;;;14.48;2.90;;;;;;;-142.75;100.00;80473.72;4986655;28;20023;-69
2022/01/18 06:32:15;;;;;;;15.98;3.65;;;;;;;-142.75;100.00;80469.78;4994187;28;20027;-68
2022/01/18 06:34:40;;;;;;;14.07;4.65;;;;;;;-142.75;100.00;80473.72;4975104;28;20106;-69
2022/01/18 06:37:07;;;;;;;13.02;3.25;;;;;;;-142.75;100.00;80489.47;4986994;28;20092;-69
2022/01/18 06:39:33;;;;;;;12.57;3.40;;;;;;;-142.75;100.00;80493.41;4975511;28;20022;-68
2022/01/18 06:41:58;;;;;;;22.58;4.07;;;;;;;-142.75;100.00;80481.59;4966449;28;20045;-69
2022/01/18 06:44:24;;;;;;;8.63;3.63;;;;;;;-142.75;100.00;80471.75;4979700;28;20023;-68
2022/01/18 06:46:49;;;;;;;15.10;5.30;;;;;;;-142.75;100.00;80475.69;4986263;28;20553;-69
2022/01/18 06:49:15;;;;;;;21.33;5.68;;;;;;;-142.75;100.00;80457.94;4987858;28;20045;-69
2022/01/18 06:51:40;;;;;;;24.98;4.57;;;;;;;-142.75;100.00;80444.16;4978120;28;20384;-70
2022/01/18 06:54:05;;;;;;;28.55;5.05;;;;;;;-142.75;100.00;80424.44;4990969;28;20109;-69
2022/01/18 06:56:31;;;;;;;26.83;4.57;;;;;;;-142.75;100.00;80414.59;4993275;28;20023;-69
2022/01/18 06:58:56;;;;;;;24.60;4.05;;;;;;;-142.75;100.00;80400.81;4972185;28;20385;-69
2022/01/18 07:01:22;;;;;;;18.00;4.28;;;;;;;-142.75;100.00;80398.84;4976681;28;20549;-69
2022/01/18 07:03:48;;;;;;;24.08;3.90;;;;;;;-142.75;100.00;80388.97;4993940;28;20061;-70
2022/01/18 07:06:15;;;;;;;33.23;4.43;;;;;;;-142.75;100.00;80388.97;4987010;28;20027;-69
2022/01/18 07:08:40;;;;;;;16.80;3.23;;;;;;;-142.75;100.00;80390.97;4988013;28;20098;-69
2022/01/18 07:11:06;;;;;;;42.10;3.72;;;;;;;-142.75;100.00;80400.81;4993754;28;20022;-70
2022/01/18 07:13:31;;;;;;;22.80;3.30;;;;;;;-142.75;100.00;80406.72;4988271;28;20026;-69
2022/01/18 07:15:57;;;;;;;37.42;3.72;;;;;;;-142.75;100.00;80398.84;4993389;28;20508;-69
2022/01/18 07:18:23;;;;;;;21.85;3.35;;;;;;;-142.75;100.00;80390.97;4962739;28;20396;-68
2022/01/18 07:20:48;;;;;;;8.85;2.90;;;;;;;-142.75;100.00;80383.06;4958202;28;20026;-70
2022/01/18 07:23:14;;;;;;;32.08;3.40;;;;;;;-142.75;100.00;80373.22;4974103;28;20030;-68
2022/01/18 07:25:45;;;;;;;33.38;3.55;;;;;;;-142.75;100.00;80381.09;4973823;28;20027;-69
2022/01/18 07:28:12;;;;;;;21.93;3.40;;;;;;;-142.75;100.00;80375.19;4973739;28;20500;-70
2022/01/18 07:30:38;;;;;;;49.27;4.03;;;;;;;-142.75;100.00;80400.81;4960646;28;20037;-68
2022/01/18 07:33:05;;;;;;;22.03;3.63;;;;;;;-142.75;100.00;80392.94;4976470;28;20026;-69
2022/01/18 07:35:33;;;;;;;32.67;3.80;;;;;;;-142.75;100.00;80398.84;4973728;28;20073;-69
2022/01/18 07:38:00;;;;;;;21.30;3.23;;;;;;;-142.75;100.00;80402.78;4973529;28;20106;-69
2022/01/18 07:40:26;;;;;;;18.40;3.40;;;;;;;-142.75;100.00;80406.72;4956371;28;20015;-69
2022/01/18 07:42:51;;;;;;;26.63;3.05;;;;;;;-142.75;100.00;80422.47;4973694;28;20026;-68
2022/01/18 07:45:16;;;;;;;16.93;3.37;;;;;;;-142.75;100.00;80422.47;4973866;28;20085;-68
2022/01/18 07:47:42;;;;;;;18.37;2.57;;;;;;;-142.75;100.00;80428.38;4984115;28;20281;-68
2022/01/18 07:50:08;;;;;;;15.30;3.33;;;;;;;-142.75;100.00;80436.28;4973379;28;20610;-69
2022/01/18 07:52:35;;;;;;;10.10;3.22;;;;;;;-142.75;100.00;80452.03;4973495;28;20115;-69
2022/01/18 07:55:03;;;;;;;9.30;2.70;;;;;;;-142.75;100.00;80457.94;4956192;28;20053;-68
2022/01/18 07:57:28;;;;;;;12.00;3.17;;;;;;;-142.75;100.00;80455.97;4975914;28;20519;-69
2022/01/18 07:59:53;;;;;;;18.85;3.25;;;;;;;-142.75;100.00;80442.19;4974531;28;20037;-68
2022/01/18 08:02:19;;;;;;;21.70;3.78;;;;;;;-142.75;100.00;80444.16;4992859;28;20038;-67
2022/01/18 08:04:44;;;;;;;16.00;3.72;;;;;;;-142.75;100.00;80434.31;4992868;28;20033;-67
2022/01/18 08:07:09;;;;;;;8.23;3.88;;;;;;;-142.75;100.00;80430.38;4975117;28;20022;-68
2022/01/18 08:09:36;;;;;;;5.13;3.25;;;;;;;-142.75;100.00;80422.47;4992369;28;20042;-68
2022/01/18 08:12:02;;;;;;;8.47;3.30;;;;;;;-142.75;100.00;80416.56;4980476;28;20089;-68
2022/01/18 08:14:31;;;;;;;5.07;2.83;;;;;;;-142.75;100.00;80408.69;4954887;28;20050;-69
2022/01/18 08:17:04;;;;;;;13.07;2.93;;;;;;;-142.75;100.00;80402.78;4971784;28;20027;-69
2022/01/18 08:19:36;;;;;;;13.80;3.00;;;;;;;-142.75;100.00;80402.78;4971900;28;20736;-68
2022/01/18 08:22:03;;;;;;;8.47;3.07;;;;;;;-142.75;100.00;80394.91;4974674;28;20134;-70
2022/01/18 08:24:28;;;;;;;6.00;2.40;;;;;;;-142.75;100.00;80379.13;4974014;28;20027;-67
2022/01/18 08:26:54;;;;;;;10.40;2.50;;;;;;;-142.75;100.00;80373.22;4991301;28;20447;-68
2022/01/18 08:29:20;;;;;;;5.90;2.58;;;;;;;-142.75;100.00;80363.38;4990912;28;20033;-68
2022/01/18 08:31:46;;;;;;;12.75;2.33;;;;;;;-142.75;100.00;80375.19;4979135;28;20061;-70
2022/01/18 08:34:12;;;;;;;7.80;2.40;;;;;;;-142.75;100.00;80367.31;4961919;28;20161;-68
2022/01/18 08:36:37;;;;;;;11.13;2.50;;;;;;;-142.75;100.00;80371.25;4984545;28;20101;-68
2022/01/18 08:39:04;;;;;;;7.40;2.17;;;;;;;-142.75;100.00;80367.31;4971633;28;20085;-66
2022/01/18 08:41:30;;;;;;;11.47;2.23;;;;;;;-142.75;100.00;80369.28;4972209;28;20030;-67
2022/01/18 08:43:55;;;;;;;4.55;2.10;;;;;;;-142.75;100.00;80363.38;4976992;28;20381;-68
2022/01/18 08:46:21;;;;;;;4.35;2.35;;;;;;;-142.75;100.00;80355.50;4966399;28;20030;-68
2022/01/18 08:48:47;;;;;;;5.10;2.22;;;;;;;-142.75;100.00;80353.53;4986744;28;20519;-68
2022/01/18 08:51:13;;;;;;;5.28;2.42;;;;;;;-142.75;100.00;80355.50;4990887;28;20446;-68
2022/01/18 08:53:39;;;;;;;5.97;2.67;;;;;;;-142.75;100.00;80343.66;4991017;28;20026;-67
2022/01/18 08:56:05;;;;;;;8.90;2.50;;;;;;;-142.75;100.00;80343.66;4991071;28;20046;-67
2022/01/18 08:58:32;;;;;;;7.57;2.90;;;;;;;-142.75;100.00;80327.91;4972919;28;20041;-67
2022/01/18 09:00:57;;;;;;;;;;;;;;;-142.75;100.00;80323.97;4973811;28;20377;-69
2022/01/18 09:03:23;;;;;;;6.57;3.27;;;;;;;-142.75;100.00;80300.31;4973358;28;19976;-67
2022/01/18 09:05:49;;;;;;;9.00;3.38;;;;;;;-142.75;100.00;80300.31;4989572;28;20028;-66
2022/01/18 09:08:14;;;;;;;8.80;3.60;;;;;;;-142.75;100.00;80312.16;4971171;28;20105;-68
2022/01/18 09:10:44;;;;;;;9.43;3.58;;;;;;;-142.75;100.00;80304.25;4953781;28;20023;-67
2022/01/18 09:13:09;;;;;;;7.03;3.40;;;;;;;-142.75;100.00;80292.44;4978451;28;20034;-67
2022/01/18 09:15:34;;;;;;;12.65;3.63;;;;;;;-142.75;100.00;80284.56;4980520;28;20093;-66
2022/01/18 09:18:00;;;;;;;7.75;3.25;;;;;;;-142.75;100.00;80292.44;4990165;28;20440;-67
2022/01/18 09:20:25;;;;;;;11.35;4.18;;;;;;;-142.75;100.00;80292.44;4990861;28;20029;-67
2022/01/18 09:22:54;;;;;;;9.20;4.47;;;;;;;-142.75;100.00;80284.56;4976762;28;20073;-68
2022/01/18 09:25:27;;;;;;;14.27;4.20;;;;;;;-142.75;100.00;80270.75;4970794;28;20039;-66
2022/01/18 09:27:54;;;;;;;16.47;4.93;;;;;;;-142.75;100.00;80260.91;4953737;28;20115;-67
2022/01/18 09:30:19;;;;;;;;;;;;;;;-142.75;100.00;80255.00;4971653;28;20049;-67
2022/01/18 09:32:47;;;;;;;17.17;4.50;;;;;;;-142.75;100.00;80251.06;4971407;28;20380;-67
2022/01/18 09:35:14;;;;;;;11.63;4.07;;;;;;;-142.75;100.00;80258.94;4984152;28;20117;-67
2022/01/18 09:37:41;;;;;;;13.63;4.70;;;;;;;-142.75;100.00;80245.16;4989824;28;20496;-68
2022/01/18 09:40:06;;;;;;;;;;;;;;;-142.75;100.00;80231.34;4973659;28;20568;-68
2022/01/18 09:42:35;;;;;;;20.10;4.27;;;;;;;-142.75;100.00;80239.25;4969688;28;19914;-68
2022/01/18 09:45:10;;;;;;;17.73;5.07;;;;;;;-142.75;100.00;80237.28;4971018;28;20043;-69
2022/01/18 09:47:38;;;;;;;24.57;5.87;;;;;;;-142.75;100.00;80233.31;4977787;28;20089;-68
2022/01/18 09:50:05;;;;;;;34.37;5.73;;;;;;;-142.75;100.00;80237.28;4960080;28;20488;-68
2022/01/18 09:52:31;;;;;;;20.40;5.83;;;;;;;-142.75;100.00;80221.50;4954636;28;20128;-69
2022/01/18 09:54:56;;;;;;;43.20;6.63;;;;;;;-142.75;100.00;80217.56;4965431;28;20525;-68
2022/01/18 09:57:22;;;;;;;38.25;6.07;;;;;;;-142.75;100.00;80213.63;4989595;28;20014;-68
2022/01/18 09:59:47;;;;;;;40.70;6.45;;;;;;;-142.75;100.00;80205.75;4989304;28;20128;-69
2022/01/18 10:02:12;;;;;;;20.50;6.82;;;;;;;-142.75;100.00;80207.72;4985303;28;20036;-68
2022/01/18 10:04:40;;;;;;;29.63;6.20;;;;;;;-142.75;100.00;80199.84;4982534;28;20507;-70
2022/01/18 10:07:05;;;;;;;38.77;6.30;;;;;;;-142.75;100.00;80199.84;4975451;28;20282;-69
2022/01/18 10:09:30;;;;;;;31.05;6.60;;;;;;;-142.75;100.00;80189.97;4976683;28;20030;-66
2022/01/18 10:11:59;;;;;;;44.22;6.35;;;;;;;-142.75;100.00;80178.16;4980637;28;20566;-67
2022/01/18 10:14:24;;;;;;;64.27;7.10;;;;;;;-142.75;100.00;80166.34;4976456;28;20038;-67
2022/01/18 10:16:50;;;;;;;53.63;7.05;;;;;;;-142.75;100.00;80162.41;4982013;28;20053;-67
2022/01/18 10:19:28;;;;;;;49.30;7.78;;;;;;;-142.75;100.00;80154.53;4958316;28;20026;-67
2022/01/18 10:21:56;;;;;;;60.40;7.37;;;;;;;-142.75;100.00;80144.66;4980439;28;20034;-67
2022/01/18 10:24:26;;;;;;;41.47;7.40;;;;;;;-142.75;100.00;80148.59;4992755;28;20073;-69
2022/01/18 10:26:54;;;;;;;28.57;7.37;;;;;;;-142.75;100.00;80142.69;4976223;28;20065;-67
2022/01/18 10:29:25;;;;;;;53.80;7.80;;;;;;;-142.75;100.00;80140.72;4965373;28;20721;-67
2022/01/18 10:37:05;;;;;;;33.30;6.77;;;;;;;-142.75;100.00;80140.72;4974158;28;20125;-68
2022/01/18 10:39:35;;;;;;;38.30;7.57;;;;;;;-142.75;100.00;80134.81;4988567;28;20033;-68
2022/01/18 10:42:14;;;;;;;27.53;7.30;;;;;;;-142.75;100.00;80123.00;4986018;28;20027;-68
2022/01/18 10:44:39;;;;;;;35.37;7.17;;;;;;;-142.75;100.00;80115.13;4978321;28;20034;-68
2022/01/18 10:47:04;;;;;;;31.25;8.15;;;;;;;-142.75;100.00;80095.41;4984663;28;20034;-68
2022/01/18 10:49:47;;;;;;;46.60;8.13;;;;;;;-142.75;100.00;80093.44;4968110;28;20058;-67
2022/01/18 10:52:14;;;;;;;26.53;6.90;;;;;;;-142.75;100.00;80085.56;4956511;28;20289;-68
2022/01/18 10:54:44;;;;;;;25.67;7.87;;;;;;;-142.75;100.00;80079.66;4973502;28;20023;-69
2022/01/18 10:57:12;;;;;;;30.13;7.40;;;;;;;-142.75;100.00;80073.75;4977597;28;20154;-67
2022/01/18 10:59:38;;;;;;;23.07;6.13;;;;;;;-142.75;100.00;80069.81;4973512;28;20019;-67
2022/01/18 11:02:07;;;;;;;25.27;6.50;;;;;;;-142.75;100.00;80079.66;4976249;28;20026;-67
2022/01/18 11:04:33;;;;;;;29.00;7.03;;;;;;;-142.75;100.00;80079.66;4968350;28;20137;-68
2022/01/18 11:07:01;;;;;;;27.88;7.38;;;;;;;-142.75;100.00;80065.84;4987728;28;20451;-68
2022/01/18 11:09:26;;;;;;;31.93;6.93;;;;;;;-142.75;100.00;80065.84;4983140;28;20113;-68
2022/01/18 11:11:52;;;;;;;31.20;8.68;;;;;;;-142.75;100.00;80052.06;4992847;28;20088;-67
2022/01/18 11:14:20;;;;;;;27.23;7.80;;;;;;;-142.75;100.00;80040.25;4975481;28;20037;-66
2022/01/18 11:16:47;;;;;;;29.93;8.63;;;;;;;-142.75;100.00;80024.50;4986274;28;20029;-68
2022/01/18 11:21:50;;;;;;;33.20;8.63;;;;;;;-142.75;100.00;80024.50;4981390;28;20116;-67
2022/01/18 11:24:17;;;;;;;37.83;9.37;;;;;;;-142.75;100.00;80034.34;4961818;28;20173;-67
2022/01/18 11:26:44;;;;;;;48.93;9.07;;;;;;;-142.75;100.00;80026.47;4968620;28;20045;-68
2022/01/18 11:29:11;;;;;;;33.00;9.20;;;;;;;-142.75;100.00;80024.50;4992259;28;20034;-67
2022/01/18 11:31:37;;;;;;;36.23;9.97;;;;;;;-142.75;100.00;80020.53;4983189;28;20428;-68
2022/01/18 11:34:07;;;;;;;38.97;11.03;;;;;;;-142.75;100.00;80012.66;4979614;28;20118;-68
2022/01/18 11:36:39;;;;;;;40.43;10.17;;;;;;;-142.75;100.00;80012.66;4982507;28;20027;-67
2022/01/18 11:39:07;;;;;;;30.97;9.77;;;;;;;-142.75;100.00;80008.72;4983320;28;20099;-68
2022/01/18 11:41:35;;;;;;;38.23;12.27;;;;;;;-142.75;100.00;80002.81;4977195;28;20034;-67
2022/01/18 11:44:19;;;;;;;41.73;11.27;;;;;;;-142.75;100.00;79994.94;4972791;28;20041;-68
2022/01/18 11:46:52;;;;;;;45.63;12.70;;;;;;;-142.75;100.00;80000.84;4984690;28;20139;-67
2022/01/18 11:49:21;;;;;;;36.07;10.80;;;;;;;-142.75;100.00;80012.66;4973194;28;20489;-67
2022/01/18 11:51:55;;;;;;;37.00;10.53;;;;;;;-142.75;100.00;80020.53;4991965;28;20448;-68
2022/01/18 11:54:55;;;;;;;39.50;11.50;;;;;;;-142.75;100.00;80024.50;4983350;28;20141;-69
2022/01/18 11:57:27;;;;;;;37.87;11.40;;;;;;;-142.75;100.00;79996.91;4982685;28;20132;-67
2022/01/18 11:59:55;;;;;;;33.13;10.17;;;;;;;-142.75;100.00;80000.84;4991605;28;20033;-67
2022/01/18 12:02:30;;;;;;;39.03;11.37;;;;;;;-142.75;100.00;79979.16;4986091;28;20022;-67
2022/01/18 12:04:57;;;;;;;32.37;11.93;;;;;;;-142.75;100.00;79977.19;4972631;28;20105;-68
2022/01/18 12:07:36;;;;;;;37.23;11.87;;;;;;;-142.75;100.00;79961.44;4980640;28;20030;-68
2022/01/18 12:10:05;;;;;;;38.43;12.03;;;;;;;-142.75;100.00;79965.38;4991145;28;20037;-67
2022/01/18 12:12:40;;;;;;;38.43;11.57;;;;;;;-142.75;100.00;79971.28;4982808;28;20445;-68
2022/01/18 12:15:29;;;;;;;33.27;11.50;;;;;;;-142.75;100.00;79975.22;4976219;28;20033;-67
2022/01/18 12:18:01;;;;;;;46.40;13.40;;;;;;;-142.75;100.00;79967.34;4957603;28;20464;-68
2022/01/18 12:20:45;;;;;;;37.97;12.10;;;;;;;-142.75;100.00;79951.59;4985506;28;20041;-67
2022/01/18 12:23:20;;;;;;;42.43;12.80;;;;;;;-142.75;100.00;79949.63;4956112;28;20038;-67
2022/01/18 12:26:14;;;;;;;40.23;14.30;;;;;;;-142.75;100.00;79949.63;4976096;28;20093;-68